createdAt,value
2018-09-11T00:02:41.568Z,8.80
2018-09-11T00:05:10.550Z,8.80
2018-09-11T00:07:39.553Z,8.90
2018-09-11T00:10:08.772Z,9.10
2018-09-11T01:02:40.741Z,8.10
2018-09-11T01:05:09.708Z,8.20
2018-09-11T01:07:38.687Z,8.40
2018-09-11T02:02:44.264Z,7.70
2018-09-11T02:05:13.258Z,7.70
2018-09-11T02:07:43.141Z,7.90
2018-09-11T03:03:19.505Z,7.20
2018-09-11T03:05:48.514Z,7.20
2018-09-11T03:08:17.681Z,7.40
2018-09-11T04:03:16.560Z,7.10
2018-09-11T04:05:45.570Z,7.20
2018-09-11T04:08:14.557Z,7.40
2018-09-11T04:10:43.745Z,7.60
2018-09-11T05:02:39.945Z,8.30
2018-09-11T05:05:08.988Z,8.50
2018-09-11T05:07:38.062Z,8.70
2018-09-11T05:10:08.365Z,9.00
2018-09-11T06:02:36.962Z,12.60
2018-09-11T06:05:06.289Z,12.90
2018-09-11T06:07:35.357Z,13.20
2018-09-11T06:10:05.473Z,13.60
2018-09-11T07:02:39.867Z,16.20
2018-09-11T07:05:08.773Z,16.50
2018-09-11T07:07:37.636Z,16.90
2018-09-11T07:10:06.912Z,17.20
2018-09-11T08:02:36.985Z,20.00
2018-09-11T08:05:05.846Z,20.20
2018-09-11T08:07:34.652Z,20.50
2018-09-11T08:10:03.722Z,20.60
2018-09-11T09:02:59.949Z,22.20
2018-09-11T09:05:28.995Z,22.30
2018-09-11T09:08:13.568Z,22.70
2018-09-11T10:03:42.516Z,23.20
2018-09-11T10:06:11.330Z,23.40
2018-09-11T10:08:40.169Z,23.80
2018-09-11T11:02:37.312Z,24.50
2018-09-11T11:05:06.231Z,24.40
2018-09-11T11:07:35.073Z,24.30
2018-09-11T11:10:04.147Z,24.40
2018-09-11T12:02:37.853Z,24.00
2018-09-11T12:05:06.761Z,24.30
2018-09-11T12:07:35.610Z,24.40
2018-09-11T12:10:04.686Z,24.80
2018-09-11T13:02:43.968Z,25.00
2018-09-11T13:05:12.834Z,24.70
2018-09-11T13:07:41.652Z,25.00
2018-09-11T13:10:10.801Z,25.50
2018-09-11T14:02:46.058Z,24.40
2018-09-11T14:05:15.079Z,24.30
2018-09-11T14:07:44.089Z,24.50
2018-09-11T15:02:47.802Z,23.30
2018-09-11T15:05:16.899Z,23.40
2018-09-11T15:07:45.900Z,23.50
2018-09-11T15:10:15.174Z,23.80
2018-09-11T16:03:05.035Z,20.80
2018-09-11T16:05:34.049Z,20.80
2018-09-11T16:08:03.055Z,20.90
2018-09-11T17:02:36.554Z,18.40
2018-09-11T17:05:05.578Z,18.50
2018-09-11T17:07:34.571Z,18.60
2018-09-11T17:10:03.762Z,18.70
2018-09-11T18:02:39.700Z,17.60
2018-09-11T18:05:08.796Z,17.70
2018-09-11T18:07:37.865Z,17.80
2018-09-11T18:10:07.984Z,18.00
2018-09-11T19:02:40.225Z,17.50
2018-09-11T19:05:09.270Z,17.60
2018-09-11T19:07:38.299Z,17.70
2018-09-11T20:02:38.095Z,17.20
2018-09-11T20:05:08.886Z,17.20
2018-09-11T20:07:38.169Z,17.20
2018-09-11T21:02:37.067Z,16.90
2018-09-11T21:05:06.135Z,17.00
2018-09-11T21:07:38.049Z,17.10
2018-09-11T23:02:36.766Z,17.00
2018-09-11T23:05:16.246Z,17.10
2018-09-11T23:07:45.417Z,17.30
